sensor_id;sensor_type;location;lat;lon;timestamp;P1;durP1;ratioP1;P2;durP2;ratioP2
25231;SDS011;13176;51.140;6.290;2023-08-06T00:01:13;205.88;;;194.15;;
25231;SDS011;13176;51.140;6.290;2023-08-06T00:03:41;272.60;;;256.63;;
25231;SDS011;13176;51.140;6.290;2023-08-06T00:06:08;280.08;;;263.95;;
25231;SDS011;13176;51.140;6.290;2023-08-06T00:08:34;316.90;;;298.45;;
25231;SDS011;13176;51.140;6.290;2023-08-06T00:11:01;304.73;;;287.02;;
25231;SDS011;13176;51.140;6.290;2023-08-06T00:13:27;305.50;;;288.15;;
25231;SDS011;13176;51.140;6.290;2023-08-06T00:15:54;311.02;;;293.17;;
25231;SDS011;13176;51.140;6.290;2023-08-06T00:18:20;334.05;;;314.50;;
25231;SDS011;13176;51.140;6.290;2023-08-06T00:20:46;318.23;;;299.85;;
25231;SDS011;13176;51.140;6.290;2023-08-06T00:23:13;322.13;;;303.77;;
25231;SDS011;13176;51.140;6.290;2023-08-06T00:25:40;374.92;;;352.75;;
25231;SDS011;13176;51.140;6.290;2023-08-06T00:28:07;392.50;;;369.20;;
25231;SDS011;13176;51.140;6.290;2023-08-06T00:30:35;417.88;;;392.73;;
25231;SDS011;13176;51.140;6.290;2023-08-06T00:33:02;419.23;;;394.02;;
25231;SDS011;13176;51.140;6.290;2023-08-06T00:35:29;438.10;;;411.42;;
25231;SDS011;13176;51.140;6.290;2023-08-06T00:37:56;461.45;;;433.23;;
25231;SDS011;13176;51.140;6.290;2023-08-06T00:40:22;441.85;;;414.50;;
25231;SDS011;13176;51.140;6.290;2023-08-06T00:42:49;482.92;;;452.70;;
25231;SDS011;13176;51.140;6.290;2023-08-06T00:45:15;443.80;;;416.52;;
25231;SDS011;13176;51.140;6.290;2023-08-06T00:47:42;405.63;;;381.30;;
25231;SDS011;13176;51.140;6.290;2023-08-06T00:50:09;415.50;;;390.25;;
25231;SDS011;13176;51.140;6.290;2023-08-06T00:52:35;415.85;;;390.70;;
25231;SDS011;13176;51.140;6.290;2023-08-06T00:55:03;328.98;;;310.08;;
25231;SDS011;13176;51.140;6.290;2023-08-06T00:57:30;339.52;;;320.42;;
25231;SDS011;13176;51.140;6.290;2023-08-06T00:59:57;344.08;;;324.30;;
25231;SDS011;13176;51.140;6.290;2023-08-06T01:02:24;316.52;;;298.52;;
25231;SDS011;13176;51.140;6.290;2023-08-06T01:04:50;336.52;;;317.20;;
25231;SDS011;13176;51.140;6.290;2023-08-06T01:15:53;267.92;;;252.68;;
25231;SDS011;13176;51.140;6.290;2023-08-06T01:18:22;252.18;;;237.90;;
25231;SDS011;13176;51.140;6.290;2023-08-06T01:20:49;304.70;;;287.42;;
25231;SDS011;13176;51.140;6.290;2023-08-06T01:23:18;316.25;;;298.40;;
25231;SDS011;13176;51.140;6.290;2023-08-06T01:28:33;376.77;;;354.25;;
25231;SDS011;13176;51.140;6.290;2023-08-06T01:31:01;405.25;;;380.63;;
25231;SDS011;13176;51.140;6.290;2023-08-06T01:33:33;442.35;;;414.98;;
25231;SDS011;13176;51.140;6.290;2023-08-06T01:36:02;449.45;;;421.15;;
25231;SDS011;13176;51.140;6.290;2023-08-06T01:38:31;479.55;;;449.50;;
25231;SDS011;13176;51.140;6.290;2023-08-06T01:40:57;537.67;;;502.92;;
25231;SDS011;13176;51.140;6.290;2023-08-06T01:43:24;533.55;;;499.60;;
25231;SDS011;13176;51.140;6.290;2023-08-06T01:45:50;491.42;;;460.05;;
25231;SDS011;13176;51.140;6.290;2023-08-06T01:48:18;522.53;;;488.60;;
25231;SDS011;13176;51.140;6.290;2023-08-06T01:50:44;533.90;;;499.08;;
25231;SDS011;13176;51.140;6.290;2023-08-06T01:53:11;517.78;;;484.35;;
25231;SDS011;13176;51.140;6.290;2023-08-06T01:55:37;536.03;;;500.83;;
25231;SDS011;13176;51.140;6.290;2023-08-06T01:58:04;576.88;;;538.72;;
25231;SDS011;13176;51.140;6.290;2023-08-06T02:00:30;578.03;;;539.88;;
25231;SDS011;13176;51.140;6.290;2023-08-06T02:02:57;548.35;;;511.30;;
25231;SDS011;13176;51.140;6.290;2023-08-06T02:05:23;543.88;;;507.73;;
25231;SDS011;13176;51.140;6.290;2023-08-06T02:07:49;574.75;;;536.72;;
25231;SDS011;13176;51.140;6.290;2023-08-06T02:10:16;586.80;;;547.80;;
25231;SDS011;13176;51.140;6.290;2023-08-06T02:12:42;540.03;;;504.42;;
25231;SDS011;13176;51.140;6.290;2023-08-06T02:15:09;565.60;;;528.45;;
25231;SDS011;13176;51.140;6.290;2023-08-06T02:17:35;568.97;;;531.20;;
25231;SDS011;13176;51.140;6.290;2023-08-06T02:20:02;550.70;;;514.50;;
25231;SDS011;13176;51.140;6.290;2023-08-06T02:22:29;552.03;;;515.92;;
25231;SDS011;13176;51.140;6.290;2023-08-06T02:24:55;551.05;;;515.78;;
25231;SDS011;13176;51.140;6.290;2023-08-06T02:27:22;538.13;;;503.77;;
25231;SDS011;13176;51.140;6.290;2023-08-06T02:29:48;529.65;;;493.95;;
25231;SDS011;13176;51.140;6.290;2023-08-06T02:32:15;534.25;;;499.10;;
25231;SDS011;13176;51.140;6.290;2023-08-06T02:34:41;548.92;;;513.55;;
25231;SDS011;13176;51.140;6.290;2023-08-06T02:37:07;499.30;;;467.63;;
25231;SDS011;13176;51.140;6.290;2023-08-06T02:39:34;488.23;;;457.42;;
25231;SDS011;13176;51.140;6.290;2023-08-06T02:42:01;538.17;;;503.10;;
25231;SDS011;13176;51.140;6.290;2023-08-06T02:44:31;536.45;;;501.50;;
25231;SDS011;13176;51.140;6.290;2023-08-06T02:46:58;501.63;;;469.90;;
25231;SDS011;13176;51.140;6.290;2023-08-06T02:49:24;520.40;;;486.58;;
25231;SDS011;13176;51.140;6.290;2023-08-06T02:51:51;535.45;;;500.00;;
25231;SDS011;13176;51.140;6.290;2023-08-06T02:54:18;526.08;;;491.10;;
25231;SDS011;13176;51.140;6.290;2023-08-06T02:56:45;594.95;;;553.78;;
25231;SDS011;13176;51.140;6.290;2023-08-06T02:59:13;572.50;;;532.72;;
25231;SDS011;13176;51.140;6.290;2023-08-06T03:01:39;607.38;;;564.55;;
25231;SDS011;13176;51.140;6.290;2023-08-06T03:04:06;644.92;;;598.53;;
25231;SDS011;13176;51.140;6.290;2023-08-06T03:06:33;638.90;;;592.20;;
25231;SDS011;13176;51.140;6.290;2023-08-06T03:09:00;669.85;;;619.33;;
25231;SDS011;13176;51.140;6.290;2023-08-06T03:11:26;644.97;;;598.70;;
25231;SDS011;13176;51.140;6.290;2023-08-06T03:13:53;579.35;;;539.15;;
25231;SDS011;13176;51.140;6.290;2023-08-06T03:16:19;597.92;;;557.63;;
25231;SDS011;13176;51.140;6.290;2023-08-06T03:18:46;503.92;;;471.05;;
25231;SDS011;13176;51.140;6.290;2023-08-06T03:21:13;567.88;;;528.33;;
25231;SDS011;13176;51.140;6.290;2023-08-06T03:23:42;537.30;;;502.52;;
25231;SDS011;13176;51.140;6.290;2023-08-06T03:26:09;597.13;;;555.25;;
25231;SDS011;13176;51.140;6.290;2023-08-06T03:28:35;629.80;;;585.38;;
25231;SDS011;13176;51.140;6.290;2023-08-06T03:31:02;671.13;;;622.58;;
25231;SDS011;13176;51.140;6.290;2023-08-06T03:33:29;680.65;;;630.03;;
25231;SDS011;13176;51.140;6.290;2023-08-06T03:35:56;588.63;;;548.15;;
25231;SDS011;13176;51.140;6.290;2023-08-06T03:38:22;634.25;;;588.08;;
25231;SDS011;13176;51.140;6.290;2023-08-06T03:40:49;577.15;;;537.15;;
25231;SDS011;13176;51.140;6.290;2023-08-06T03:43:16;584.13;;;543.75;;
25231;SDS011;13176;51.140;6.290;2023-08-06T03:45:42;669.95;;;620.97;;
25231;SDS011;13176;51.140;6.290;2023-08-06T03:48:09;683.00;;;631.83;;
25231;SDS011;13176;51.140;6.290;2023-08-06T03:50:35;692.08;;;640.08;;
25231;SDS011;13176;51.140;6.290;2023-08-06T03:53:02;725.20;;;669.03;;
25231;SDS011;13176;51.140;6.290;2023-08-06T03:55:28;630.33;;;586.60;;
25231;SDS011;13176;51.140;6.290;2023-08-06T03:57:57;642.65;;;596.03;;
25231;SDS011;13176;51.140;6.290;2023-08-06T04:00:24;673.00;;;623.53;;
25231;SDS011;13176;51.140;6.290;2023-08-06T04:02:50;732.33;;;676.67;;
25231;SDS011;13176;51.140;6.290;2023-08-06T04:05:17;696.72;;;643.50;;
25231;SDS011;13176;51.140;6.290;2023-08-06T04:07:46;660.40;;;611.67;;
25231;SDS011;13176;51.140;6.290;2023-08-06T04:10:12;660.92;;;613.72;;
25231;SDS011;13176;51.140;6.290;2023-08-06T04:12:39;690.08;;;638.85;;
25231;SDS011;13176;51.140;6.290;2023-08-06T04:15:06;608.08;;;566.20;;
25231;SDS011;13176;51.140;6.290;2023-08-06T04:17:33;733.30;;;676.60;;
25231;SDS011;13176;51.140;6.290;2023-08-06T04:19:59;653.55;;;606.40;;
25231;SDS011;13176;51.140;6.290;2023-08-06T04:22:26;648.25;;;601.08;;
25231;SDS011;13176;51.140;6.290;2023-08-06T04:24:53;717.55;;;664.35;;
25231;SDS011;13176;51.140;6.290;2023-08-06T04:27:19;797.67;;;736.42;;
25231;SDS011;13176;51.140;6.290;2023-08-06T04:29:46;816.88;;;751.03;;
25231;SDS011;13176;51.140;6.290;2023-08-06T04:32:12;908.17;;;828.33;;
25231;SDS011;13176;51.140;6.290;2023-08-06T04:34:39;963.58;;;873.78;;
25231;SDS011;13176;51.140;6.290;2023-08-06T04:37:05;996.08;;;900.00;;
25231;SDS011;13176;51.140;6.290;2023-08-06T04:39:32;1048.70;;;941.42;;
25231;SDS011;13176;51.140;6.290;2023-08-06T04:41:58;1056.65;;;949.17;;
25231;SDS011;13176;51.140;6.290;2023-08-06T04:44:25;1053.53;;;946.00;;
25231;SDS011;13176;51.140;6.290;2023-08-06T04:46:51;1097.13;;;979.80;;
25231;SDS011;13176;51.140;6.290;2023-08-06T04:49:19;1091.43;;;980.75;;
25231;SDS011;13176;51.140;6.290;2023-08-06T04:51:46;1132.57;;;995.70;;
25231;SDS011;13176;51.140;6.290;2023-08-06T04:54:13;1205.35;;;999.90;;
25231;SDS011;13176;51.140;6.290;2023-08-06T04:56:39;1253.78;;;999.90;;
25231;SDS011;13176;51.140;6.290;2023-08-06T04:59:06;1198.78;;;999.90;;
25231;SDS011;13176;51.140;6.290;2023-08-06T05:01:32;1233.03;;;999.90;;
25231;SDS011;13176;51.140;6.290;2023-08-06T05:03:59;1286.90;;;999.90;;
25231;SDS011;13176;51.140;6.290;2023-08-06T05:06:26;1173.05;;;999.90;;
25231;SDS011;13176;51.140;6.290;2023-08-06T05:08:52;1241.18;;;999.90;;
25231;SDS011;13176;51.140;6.290;2023-08-06T05:11:18;1308.15;;;999.90;;
25231;SDS011;13176;51.140;6.290;2023-08-06T05:13:45;1362.45;;;999.90;;
25231;SDS011;13176;51.140;6.290;2023-08-06T05:16:12;1333.07;;;999.90;;
25231;SDS011;13176;51.140;6.290;2023-08-06T05:18:38;1237.03;;;999.90;;
25231;SDS011;13176;51.140;6.290;2023-08-06T05:21:05;1316.22;;;999.90;;
25231;SDS011;13176;51.140;6.290;2023-08-06T05:23:31;1377.95;;;999.90;;
25231;SDS011;13176;51.140;6.290;2023-08-06T05:25:58;1409.88;;;999.90;;
25231;SDS011;13176;51.140;6.290;2023-08-06T05:28:24;1390.93;;;999.90;;
25231;SDS011;13176;51.140;6.290;2023-08-06T05:30:51;1456.55;;;999.90;;
25231;SDS011;13176;51.140;6.290;2023-08-06T05:33:17;1489.53;;;999.90;;
25231;SDS011;13176;51.140;6.290;2023-08-06T05:35:44;1462.90;;;999.90;;
25231;SDS011;13176;51.140;6.290;2023-08-06T05:38:10;1483.15;;;999.90;;
25231;SDS011;13176;51.140;6.290;2023-08-06T05:40:36;1508.47;;;999.90;;
25231;SDS011;13176;51.140;6.290;2023-08-06T05:43:05;1480.95;;;999.90;;
25231;SDS011;13176;51.140;6.290;2023-08-06T05:45:32;1503.45;;;999.90;;
25231;SDS011;13176;51.140;6.290;2023-08-06T05:47:58;1461.78;;;999.90;;
25231;SDS011;13176;51.140;6.290;2023-08-06T05:50:25;1459.97;;;999.90;;
25231;SDS011;13176;51.140;6.290;2023-08-06T05:52:51;1386.07;;;999.90;;
25231;SDS011;13176;51.140;6.290;2023-08-06T05:55:19;1454.55;;;999.90;;
25231;SDS011;13176;51.140;6.290;2023-08-06T05:57:46;1427.68;;;999.90;;
25231;SDS011;13176;51.140;6.290;2023-08-06T06:00:13;1450.43;;;999.90;;
25231;SDS011;13176;51.140;6.290;2023-08-06T06:02:39;1379.07;;;999.90;;
25231;SDS011;13176;51.140;6.290;2023-08-06T06:05:06;1443.20;;;999.90;;
25231;SDS011;13176;51.140;6.290;2023-08-06T06:07:33;1371.43;;;999.90;;
25231;SDS011;13176;51.140;6.290;2023-08-06T06:09:59;1399.95;;;999.90;;
25231;SDS011;13176;51.140;6.290;2023-08-06T06:12:25;1312.57;;;999.90;;
25231;SDS011;13176;51.140;6.290;2023-08-06T06:14:52;1383.63;;;999.90;;
25231;SDS011;13176;51.140;6.290;2023-08-06T06:17:18;1335.18;;;999.90;;
25231;SDS011;13176;51.140;6.290;2023-08-06T06:19:45;1388.45;;;999.90;;
25231;SDS011;13176;51.140;6.290;2023-08-06T06:22:12;1450.20;;;999.90;;
25231;SDS011;13176;51.140;6.290;2023-08-06T06:24:39;1466.60;;;999.90;;
25231;SDS011;13176;51.140;6.290;2023-08-06T06:27:05;1420.10;;;999.90;;
25231;SDS011;13176;51.140;6.290;2023-08-06T06:29:32;1523.93;;;999.90;;
25231;SDS011;13176;51.140;6.290;2023-08-06T06:31:58;1448.50;;;999.90;;
25231;SDS011;13176;51.140;6.290;2023-08-06T06:34:25;1393.45;;;999.90;;
25231;SDS011;13176;51.140;6.290;2023-08-06T06:36:51;1517.43;;;999.90;;
25231;SDS011;13176;51.140;6.290;2023-08-06T06:39:17;1396.57;;;999.90;;
25231;SDS011;13176;51.140;6.290;2023-08-06T06:41:44;1427.07;;;999.90;;
25231;SDS011;13176;51.140;6.290;2023-08-06T06:44:10;1394.70;;;999.90;;
25231;SDS011;13176;51.140;6.290;2023-08-06T06:46:37;1324.97;;;999.90;;
25231;SDS011;13176;51.140;6.290;2023-08-06T06:49:03;1371.03;;;999.90;;
25231;SDS011;13176;51.140;6.290;2023-08-06T06:51:30;1426.57;;;999.90;;
25231;SDS011;13176;51.140;6.290;2023-08-06T06:53:58;1599.65;;;999.90;;
25231;SDS011;13176;51.140;6.290;2023-08-06T06:56:24;1497.97;;;999.90;;
25231;SDS011;13176;51.140;6.290;2023-08-06T06:58:51;1525.97;;;999.90;;
25231;SDS011;13176;51.140;6.290;2023-08-06T07:01:17;1681.40;;;999.90;;
25231;SDS011;13176;51.140;6.290;2023-08-06T07:03:44;1646.22;;;999.90;;
25231;SDS011;13176;51.140;6.290;2023-08-06T07:06:10;1578.85;;;999.90;;
25231;SDS011;13176;51.140;6.290;2023-08-06T07:08:38;1566.75;;;999.90;;
25231;SDS011;13176;51.140;6.290;2023-08-06T07:11:05;1376.90;;;999.90;;
25231;SDS011;13176;51.140;6.290;2023-08-06T07:13:34;1419.22;;;999.90;;
25231;SDS011;13176;51.140;6.290;2023-08-06T07:16:00;1495.50;;;999.90;;
25231;SDS011;13176;51.140;6.290;2023-08-06T07:18:27;1488.90;;;999.90;;
25231;SDS011;13176;51.140;6.290;2023-08-06T07:20:54;1466.03;;;999.90;;
25231;SDS011;13176;51.140;6.290;2023-08-06T07:23:22;1352.65;;;999.90;;
25231;SDS011;13176;51.140;6.290;2023-08-06T07:25:50;1406.65;;;999.90;;
25231;SDS011;13176;51.140;6.290;2023-08-06T07:28:17;1402.28;;;999.90;;
25231;SDS011;13176;51.140;6.290;2023-08-06T07:30:44;1350.72;;;999.90;;
25231;SDS011;13176;51.140;6.290;2023-08-06T07:33:11;1451.75;;;999.90;;
25231;SDS011;13176;51.140;6.290;2023-08-06T07:35:38;1297.90;;;999.90;;
25231;SDS011;13176;51.140;6.290;2023-08-06T07:38:05;1317.47;;;999.90;;
25231;SDS011;13176;51.140;6.290;2023-08-06T07:40:35;1396.68;;;999.90;;
25231;SDS011;13176;51.140;6.290;2023-08-06T07:43:03;1605.35;;;999.90;;
25231;SDS011;13176;51.140;6.290;2023-08-06T07:45:36;1515.43;;;999.90;;
25231;SDS011;13176;51.140;6.290;2023-08-06T07:48:03;1494.03;;;999.90;;
25231;SDS011;13176;51.140;6.290;2023-08-06T07:50:30;1411.63;;;999.90;;
25231;SDS011;13176;51.140;6.290;2023-08-06T07:52:57;1452.22;;;999.90;;
25231;SDS011;13176;51.140;6.290;2023-08-06T07:55:24;1450.45;;;999.90;;
25231;SDS011;13176;51.140;6.290;2023-08-06T07:57:51;1470.47;;;999.90;;
25231;SDS011;13176;51.140;6.290;2023-08-06T08:00:20;1357.65;;;999.90;;
25231;SDS011;13176;51.140;6.290;2023-08-06T08:02:50;1421.43;;;999.90;;
25231;SDS011;13176;51.140;6.290;2023-08-06T08:05:17;1359.68;;;999.90;;
25231;SDS011;13176;51.140;6.290;2023-08-06T08:07:43;1352.82;;;999.90;;
25231;SDS011;13176;51.140;6.290;2023-08-06T08:10:10;1404.70;;;999.90;;
25231;SDS011;13176;51.140;6.290;2023-08-06T08:12:37;1308.30;;;999.90;;
25231;SDS011;13176;51.140;6.290;2023-08-06T08:15:04;1353.25;;;999.90;;
25231;SDS011;13176;51.140;6.290;2023-08-06T08:17:31;1370.90;;;999.90;;
25231;SDS011;13176;51.140;6.290;2023-08-06T08:19:57;1409.10;;;999.90;;
25231;SDS011;13176;51.140;6.290;2023-08-06T08:22:24;1429.63;;;999.90;;
25231;SDS011;13176;51.140;6.290;2023-08-06T08:24:50;1383.13;;;999.90;;
25231;SDS011;13176;51.140;6.290;2023-08-06T08:27:16;1424.65;;;999.90;;
25231;SDS011;13176;51.140;6.290;2023-08-06T08:29:43;1447.22;;;999.90;;
25231;SDS011;13176;51.140;6.290;2023-08-06T08:32:09;1285.25;;;999.90;;
25231;SDS011;13176;51.140;6.290;2023-08-06T08:34:36;1389.60;;;999.90;;
25231;SDS011;13176;51.140;6.290;2023-08-06T08:37:04;1374.97;;;999.90;;
25231;SDS011;13176;51.140;6.290;2023-08-06T08:39:32;1325.18;;;999.90;;
25231;SDS011;13176;51.140;6.290;2023-08-06T08:42:03;1383.43;;;999.90;;
25231;SDS011;13176;51.140;6.290;2023-08-06T08:47:12;1250.38;;;999.90;;
25231;SDS011;13176;51.140;6.290;2023-08-06T08:49:41;1301.72;;;999.90;;
25231;SDS011;13176;51.140;6.290;2023-08-06T08:52:10;1298.95;;;999.90;;
25231;SDS011;13176;51.140;6.290;2023-08-06T08:54:40;1306.80;;;999.90;;
25231;SDS011;13176;51.140;6.290;2023-08-06T08:57:07;1433.38;;;999.90;;
25231;SDS011;13176;51.140;6.290;2023-08-06T08:59:34;1401.50;;;999.90;;
25231;SDS011;13176;51.140;6.290;2023-08-06T09:02:01;1341.35;;;999.90;;
25231;SDS011;13176;51.140;6.290;2023-08-06T09:04:29;1364.57;;;999.90;;
25231;SDS011;13176;51.140;6.290;2023-08-06T09:07:00;1387.63;;;999.90;;
25231;SDS011;13176;51.140;6.290;2023-08-06T09:09:33;1336.30;;;999.90;;
25231;SDS011;13176;51.140;6.290;2023-08-06T09:12:07;1331.35;;;999.90;;
25231;SDS011;13176;51.140;6.290;2023-08-06T09:14:42;1359.72;;;999.90;;
25231;SDS011;13176;51.140;6.290;2023-08-06T09:17:11;1369.70;;;999.90;;
25231;SDS011;13176;51.140;6.290;2023-08-06T09:19:37;1300.47;;;999.90;;
25231;SDS011;13176;51.140;6.290;2023-08-06T09:22:11;1184.13;;;999.90;;
25231;SDS011;13176;51.140;6.290;2023-08-06T09:24:40;1244.55;;;999.90;;
25231;SDS011;13176;51.140;6.290;2023-08-06T09:27:14;1280.07;;;999.90;;
25231;SDS011;13176;51.140;6.290;2023-08-06T09:29:42;1367.82;;;999.90;;
25231;SDS011;13176;51.140;6.290;2023-08-06T09:32:11;1391.10;;;999.90;;
25231;SDS011;13176;51.140;6.290;2023-08-06T09:34:39;1347.70;;;999.90;;
25231;SDS011;13176;51.140;6.290;2023-08-06T09:37:10;1328.72;;;999.90;;
25231;SDS011;13176;51.140;6.290;2023-08-06T09:39:39;1292.28;;;999.90;;
25231;SDS011;13176;51.140;6.290;2023-08-06T09:42:14;1366.63;;;999.90;;
25231;SDS011;13176;51.140;6.290;2023-08-06T09:44:42;1287.78;;;999.90;;
25231;SDS011;13176;51.140;6.290;2023-08-06T09:47:10;1335.60;;;999.90;;
25231;SDS011;13176;51.140;6.290;2023-08-06T09:49:42;1414.47;;;999.90;;
25231;SDS011;13176;51.140;6.290;2023-08-06T09:54:43;1217.65;;;999.90;;
25231;SDS011;13176;51.140;6.290;2023-08-06T09:57:11;1360.43;;;999.90;;
25231;SDS011;13176;51.140;6.290;2023-08-06T09:59:45;1327.80;;;999.90;;
25231;SDS011;13176;51.140;6.290;2023-08-06T10:02:14;1332.60;;;999.90;;
25231;SDS011;13176;51.140;6.290;2023-08-06T10:04:44;1295.90;;;999.90;;
25231;SDS011;13176;51.140;6.290;2023-08-06T10:07:21;1322.47;;;999.90;;
25231;SDS011;13176;51.140;6.290;2023-08-06T10:09:51;1177.85;;;963.35;;
25231;SDS011;13176;51.140;6.290;2023-08-06T10:12:17;1228.10;;;999.90;;
25231;SDS011;13176;51.140;6.290;2023-08-06T10:14:46;1178.82;;;999.90;;
25231;SDS011;13176;51.140;6.290;2023-08-06T10:17:15;1245.68;;;999.90;;
25231;SDS011;13176;51.140;6.290;2023-08-06T10:19:46;1157.75;;;999.90;;
25231;SDS011;13176;51.140;6.290;2023-08-06T10:22:15;1240.25;;;999.90;;
25231;SDS011;13176;51.140;6.290;2023-08-06T10:24:50;1201.13;;;999.90;;
25231;SDS011;13176;51.140;6.290;2023-08-06T10:32:59;1232.15;;;999.90;;
25231;SDS011;13176;51.140;6.290;2023-08-06T10:35:30;1271.03;;;999.90;;
25231;SDS011;13176;51.140;6.290;2023-08-06T10:38:20;1305.13;;;999.90;;
25231;SDS011;13176;51.140;6.290;2023-08-06T10:40:49;1251.18;;;999.90;;
25231;SDS011;13176;51.140;6.290;2023-08-06T10:45:52;1352.80;;;999.90;;
25231;SDS011;13176;51.140;6.290;2023-08-06T10:51:08;1332.35;;;999.90;;
25231;SDS011;13176;51.140;6.290;2023-08-06T10:53:36;1245.13;;;999.90;;
25231;SDS011;13176;51.140;6.290;2023-08-06T10:56:14;1288.60;;;999.90;;
25231;SDS011;13176;51.140;6.290;2023-08-06T10:58:52;1255.22;;;999.90;;
25231;SDS011;13176;51.140;6.290;2023-08-06T11:01:23;1257.00;;;999.90;;
25231;SDS011;13176;51.140;6.290;2023-08-06T11:03:50;1450.85;;;999.90;;
25231;SDS011;13176;51.140;6.290;2023-08-06T11:06:19;1344.57;;;999.90;;
25231;SDS011;13176;51.140;6.290;2023-08-06T11:08:47;1304.65;;;999.90;;
25231;SDS011;13176;51.140;6.290;2023-08-06T11:11:17;1375.13;;;999.90;;
25231;SDS011;13176;51.140;6.290;2023-08-06T11:13:45;1322.55;;;999.90;;
25231;SDS011;13176;51.140;6.290;2023-08-06T11:16:16;1430.35;;;999.90;;
25231;SDS011;13176;51.140;6.290;2023-08-06T11:18:44;1314.22;;;999.90;;
25231;SDS011;13176;51.140;6.290;2023-08-06T11:21:11;1195.88;;;999.90;;
25231;SDS011;13176;51.140;6.290;2023-08-06T11:23:38;1214.05;;;999.90;;
25231;SDS011;13176;51.140;6.290;2023-08-06T11:26:07;1112.07;;;995.05;;
25231;SDS011;13176;51.140;6.290;2023-08-06T11:28:33;1068.22;;;962.70;;
25231;SDS011;13176;51.140;6.290;2023-08-06T11:31:00;1052.05;;;949.63;;
25231;SDS011;13176;51.140;6.290;2023-08-06T11:33:28;1005.35;;;911.92;;
25231;SDS011;13176;51.140;6.290;2023-08-06T11:35:56;987.67;;;896.10;;
25231;SDS011;13176;51.140;6.290;2023-08-06T11:38:25;1042.28;;;941.35;;
25231;SDS011;13176;51.140;6.290;2023-08-06T11:40:53;1045.40;;;941.20;;
25231;SDS011;13176;51.140;6.290;2023-08-06T11:43:19;1036.38;;;935.33;;
25231;SDS011;13176;51.140;6.290;2023-08-06T11:45:51;1012.13;;;917.05;;
25231;SDS011;13176;51.140;6.290;2023-08-06T11:48:20;1005.40;;;910.28;;
25231;SDS011;13176;51.140;6.290;2023-08-06T11:50:46;900.25;;;826.67;;
25231;SDS011;13176;51.140;6.290;2023-08-06T11:53:13;968.65;;;880.13;;
25231;SDS011;13176;51.140;6.290;2023-08-06T11:55:41;914.17;;;838.05;;
25231;SDS011;13176;51.140;6.290;2023-08-06T11:58:09;894.63;;;819.45;;
25231;SDS011;13176;51.140;6.290;2023-08-06T12:00:36;859.85;;;790.30;;
25231;SDS011;13176;51.140;6.290;2023-08-06T12:03:04;861.30;;;791.60;;
25231;SDS011;13176;51.140;6.290;2023-08-06T12:05:31;850.55;;;782.90;;
25231;SDS011;13176;51.140;6.290;2023-08-06T12:08:02;878.47;;;803.58;;
25231;SDS011;13176;51.140;6.290;2023-08-06T12:10:30;885.15;;;811.75;;
25231;SDS011;13176;51.140;6.290;2023-08-06T12:12:58;924.28;;;844.17;;
25231;SDS011;13176;51.140;6.290;2023-08-06T12:15:24;1006.70;;;908.05;;
25231;SDS011;13176;51.140;6.290;2023-08-06T12:17:51;1085.00;;;953.97;;
25231;SDS011;13176;51.140;6.290;2023-08-06T12:20:17;1093.82;;;969.42;;
25231;SDS011;13176;51.140;6.290;2023-08-06T12:22:44;1037.05;;;933.22;;
25231;SDS011;13176;51.140;6.290;2023-08-06T12:25:12;1028.68;;;930.40;;
25231;SDS011;13176;51.140;6.290;2023-08-06T12:27:39;1001.25;;;907.17;;
25231;SDS011;13176;51.140;6.290;2023-08-06T12:30:09;982.03;;;892.28;;
25231;SDS011;13176;51.140;6.290;2023-08-06T12:32:37;942.85;;;858.67;;
25231;SDS011;13176;51.140;6.290;2023-08-06T12:35:04;931.97;;;850.70;;
25231;SDS011;13176;51.140;6.290;2023-08-06T12:37:33;958.17;;;873.85;;
25231;SDS011;13176;51.140;6.290;2023-08-06T12:40:00;948.05;;;865.53;;
25231;SDS011;13176;51.140;6.290;2023-08-06T12:42:46;937.75;;;858.47;;
25231;SDS011;13176;51.140;6.290;2023-08-06T12:45:12;1072.22;;;936.95;;
25231;SDS011;13176;51.140;6.290;2023-08-06T12:47:40;1203.45;;;989.20;;
25231;SDS011;13176;51.140;6.290;2023-08-06T12:50:07;1091.57;;;975.45;;
25231;SDS011;13176;51.140;6.290;2023-08-06T12:52:34;1148.95;;;988.22;;
25231;SDS011;13176;51.140;6.290;2023-08-06T12:55:00;1057.88;;;949.45;;
25231;SDS011;13176;51.140;6.290;2023-08-06T12:57:27;1095.13;;;972.90;;
25231;SDS011;13176;51.140;6.290;2023-08-06T13:00:12;1059.90;;;952.67;;
25231;SDS011;13176;51.140;6.290;2023-08-06T13:02:39;1075.18;;;954.10;;
25231;SDS011;13176;51.140;6.290;2023-08-06T13:05:05;1091.30;;;976.78;;
25231;SDS011;13176;51.140;6.290;2023-08-06T13:07:33;1021.35;;;920.95;;
25231;SDS011;13176;51.140;6.290;2023-08-06T13:09:59;1000.47;;;907.58;;
25231;SDS011;13176;51.140;6.290;2023-08-06T13:12:26;973.72;;;887.58;;
25231;SDS011;13176;51.140;6.290;2023-08-06T13:14:52;1012.75;;;917.83;;
25231;SDS011;13176;51.140;6.290;2023-08-06T13:17:19;995.70;;;905.30;;
25231;SDS011;13176;51.140;6.290;2023-08-06T13:19:45;1059.25;;;950.00;;
25231;SDS011;13176;51.140;6.290;2023-08-06T13:22:12;1081.57;;;965.08;;
25231;SDS011;13176;51.140;6.290;2023-08-06T13:24:38;1132.93;;;998.63;;
25231;SDS011;13176;51.140;6.290;2023-08-06T13:27:05;1142.45;;;999.90;;
25231;SDS011;13176;51.140;6.290;2023-08-06T13:29:31;1247.82;;;999.90;;
25231;SDS011;13176;51.140;6.290;2023-08-06T13:31:57;1314.00;;;999.90;;
25231;SDS011;13176;51.140;6.290;2023-08-06T13:34:24;1096.65;;;982.83;;
25231;SDS011;13176;51.140;6.290;2023-08-06T13:36:51;1046.60;;;943.40;;
25231;SDS011;13176;51.140;6.290;2023-08-06T13:39:18;1041.55;;;941.63;;
25231;SDS011;13176;51.140;6.290;2023-08-06T13:41:45;1015.90;;;919.70;;
25231;SDS011;13176;51.140;6.290;2023-08-06T13:44:12;1029.88;;;931.28;;
25231;SDS011;13176;51.140;6.290;2023-08-06T13:46:40;1093.93;;;971.72;;
25231;SDS011;13176;51.140;6.290;2023-08-06T13:49:08;1213.00;;;997.25;;
25231;SDS011;13176;51.140;6.290;2023-08-06T13:51:35;1125.22;;;991.72;;
25231;SDS011;13176;51.140;6.290;2023-08-06T13:54:02;1289.47;;;999.90;;
25231;SDS011;13176;51.140;6.290;2023-08-06T13:56:29;1184.35;;;994.70;;
25231;SDS011;13176;51.140;6.290;2023-08-06T13:58:58;1301.40;;;999.90;;
25231;SDS011;13176;51.140;6.290;2023-08-06T14:01:24;1117.65;;;993.80;;
25231;SDS011;13176;51.140;6.290;2023-08-06T14:04:08;1184.97;;;998.72;;
25231;SDS011;13176;51.140;6.290;2023-08-06T14:06:36;1296.80;;;999.90;;
25231;SDS011;13176;51.140;6.290;2023-08-06T14:09:02;1250.35;;;999.90;;
25231;SDS011;13176;51.140;6.290;2023-08-06T14:11:29;1093.95;;;983.45;;
25231;SDS011;13176;51.140;6.290;2023-08-06T14:13:56;1110.22;;;991.50;;
25231;SDS011;13176;51.140;6.290;2023-08-06T14:16:22;1199.00;;;999.90;;
25231;SDS011;13176;51.140;6.290;2023-08-06T14:18:48;1073.75;;;961.78;;